Terminal Aerodrome Forecast
Issued by NWS

Home | Current Version | Previous Version | Text Only | Print | Product List | Glossary On
Versions: 1 2 3 4 5 6 7 8 9 10 11 12 13 14 15 16 17 18 19 20 21 22 23 24 25 26 27 28 29 30 31 32 33 34 35 36 37 38 39 40 41 42 43 44 45 46 47 48 49 50
000
FTUS44 KHGX 262322
TAFIAH
TAF
KIAH 262322Z 2700/2806 11009KT P6SM VCSH SCT025 BKN100
      TEMPO 2700/2701 -TSRA BKN025CB
     FM270300 14008KT 6SM BR SCT020
     FM270600 13008KT 5SM BR SCT006 BKN012
     FM271400 06009KT 5SM BR VCTS BKN007 BKN020 BKN040CB
     FM272100 09009KT P6SM VCSH BKN050
     FM280000 11008KT P6SM BKN025 PROB30 2800/2803 P6SM TS BKN025CB=

USA.gov is the U.S. government's official web portal to all federal, state and local government web resources and services.